Airport View

Enter ICAO identifier to see the current METAR for that AWOS.

KFNL for example

KGTF 280253Z 22004KT 10SM CLR 20/08 A3001

28 Aug 2014 03:14

Phone: 406-452-9844

Other Area AWOS: KGFA - K79S - KHLN - KCTB

TAF KGTF 272338Z 2800/2824 31008KT P6SM SKC FM281800 23015G22KT P6SM SCT120